Harle — ZCTV4 — position and weather

sailwx.info

Track history (hours):
 
Tides and Currents Weather Stations Pressure Air Temp Water Temp Dewpoint Dewpoint Depression Visibility Wind Speed Wind Dir Waves Ship Positions

Harle

Last reported at 2017-Jun-28 04:14 UTC. Time now 2017-Jun-28 05:29 UTC.
Position N 43°33' E 007°07'.

Length 45 m; draft 2.7 m.

Type: Pleasure craft. MMSI: 319323000.

Date/timePositionNaut miles runAvg speedWind from/ knotsBaromVisibWave heightAir tempDewpointWater temp
2017-Jun-28 04:14N 43°33' E 007°07'0 0.0
2017-Jun-28 03:50N 43°33' E 007°07'0 0.0
2017-Jun-28 02:11N 43°34' E 007°07'0 0.0
2017-Jun-28 00:38N 43°33' E 007°07'0 0.0
2017-Jun-28 00:26N 43°33' E 007°07'0 0.0
2017-Jun-27 23:50N 43°33' E 007°07'0 0.0
2017-Jun-27 23:29N 43°33' E 007°07'1 0.2
2017-Jun-27 20:17N 43°33' E 007°07'7612.0
2017-Jun-27 13:59N 44°10' E 008°38'712.1
2017-Jun-27 13:23N 44°13' E 008°47'512.1
2017-Jun-27 13:00N 44°14' E 008°54'612.2
2017-Jun-27 12:30N 44°15' E 009°02'612.2
2017-Jun-27 12:00N 44°17' E 009°10'510.3
2017-Jun-27 11:31N 44°17' E 009°17'4 0.2
2017-Jun-26 12:37N 44°18' E 009°13'0 1.4
2017-Jun-26 12:30N 44°18' E 009°13'3 5.7
2017-Jun-26 12:00N 44°17' E 009°10'612.2
2017-Jun-26 11:30N 44°15' E 009°02'612.1
2017-Jun-26 11:00N 44°13' E 008°53'612.1
2017-Jun-26 10:30N 44°11' E 008°45'612.0
2017-Jun-26 10:00N 44°09' E 008°38'78 3.9
2017-Jun-25 13:55N 43°31' E 007°03'0 0.0
2017-Jun-25 13:28N 43°31' E 007°03'0 0.1
2017-Jun-25 12:58N 43°31' E 007°03'0 0.0
2017-Jun-25 12:25N 43°31' E 007°03'0 0.1
2017-Jun-25 11:58N 43°31' E 007°03'0 0.0
2017-Jun-25 11:28N 43°31' E 007°03'0 0.0
2017-Jun-25 10:58N 43°31' E 007°03'0 0.0
2017-Jun-25 10:28N 43°31' E 007°03'0 0.0
2017-Jun-25 09:55N 43°31' E 007°03'0 0.0
2017-Jun-25 09:28N 43°31' E 007°03'0 0.0
2017-Jun-25 08:55N 43°31' E 007°03'0 0.0
2017-Jun-25 08:19N 43°31' E 007°03'0 0.0
2017-Jun-25 07:52N 43°31' E 007°03'0 0.1
2017-Jun-25 07:07N 43°31' E 007°03'0 0.2
2017-Jun-25 06:58N 43°31' E 007°03'0 0.0
2017-Jun-25 06:28N 43°31' E 007°03'0 0.0
2017-Jun-25 05:58N 43°31' E 007°03'0 0.0
2017-Jun-25 05:28N 43°31' E 007°03'0 0.0
2017-Jun-25 04:55N 43°31' E 007°03'0 0.0
2017-Jun-25 04:25N 43°31' E 007°03'0 0.0
2017-Jun-25 03:58N 43°31' E 007°03'0 0.0
2017-Jun-25 03:28N 43°31' E 007°03'0 0.0
2017-Jun-25 02:43N 43°31' E 007°03'0 0.1
2017-Jun-25 02:28N 43°31' E 007°03'0 0.0
2017-Jun-25 01:58N 43°31' E 007°03'0 0.0
2017-Jun-25 01:22N 43°31' E 007°03'0 0.0
2017-Jun-25 00:43N 43°31' E 007°03'0 0.0
2017-Jun-25 00:25N 43°31' E 007°03'0 0.0
2017-Jun-24 23:52N 43°31' E 007°03'0 0.0
2017-Jun-24 23:28N 43°31' E 007°03'0 0.0
2017-Jun-24 22:58N 43°31' E 007°03'0 0.0
2017-Jun-24 22:25N 43°31' E 007°03'0 0.0
2017-Jun-24 21:55N 43°31' E 007°03'0 0.0
2017-Jun-24 21:28N 43°31' E 007°03'0 0.0
2017-Jun-24 20:55N 43°31' E 007°03'0 0.0
2017-Jun-24 20:19N 43°31' E 007°03'0 0.0
2017-Jun-24 19:43N 43°31' E 007°03'0 0.0
2017-Jun-24 19:28N 43°31' E 007°03'0 0.0
2017-Jun-24 18:55N 43°31' E 007°03'0 0.0
2017-Jun-24 18:25N 43°31' E 007°03'0 0.0
2017-Jun-24 17:55N 43°31' E 007°03'0 0.0
2017-Jun-24 17:28N 43°31' E 007°03'0 0.0
2017-Jun-24 16:58N 43°31' E 007°03'0 0.0
2017-Jun-24 16:25N 43°31' E 007°03'0 0.0
2017-Jun-24 15:55N 43°31' E 007°03'0 0.0
2017-Jun-24 15:19N 43°31' E 007°03'0 0.0
2017-Jun-24 14:55N 43°31' E 007°03'0 0.0
2017-Jun-24 14:25N 43°31' E 007°03'0 0.0
2017-Jun-24 13:13N 43°31' E 007°03'0 0.0
2017-Jun-24 12:40N 43°31' E 007°03'0 0.1
2017-Jun-24 12:30N 43°31' E 007°03'  
Track history (hours):
 
Tides and Currents Weather Stations Pressure Air Temp Water Temp Dewpoint Dewpoint Depression Visibility Wind Speed Wind Dir Waves Ship Positions

Harle

Last reported at 2017-Jun-28 04:14 UTC. Time now 2017-Jun-28 05:29 UTC.
Position N 43°33' E 007°07'.

Length 45 m; draft 2.7 m.

Type: Pleasure craft. MMSI: 319323000.

Date/timePositionNaut miles runAvg speedWind from/ knotsBaromVisibWave heightAir tempDewpointWater temp
2017-Jun-28 04:14N 43°33' E 007°07'0 0.0
2017-Jun-28 03:50N 43°33' E 007°07'0 0.0
2017-Jun-28 02:11N 43°34' E 007°07'0 0.0
2017-Jun-28 00:38N 43°33' E 007°07'0 0.0
2017-Jun-28 00:26N 43°33' E 007°07'0 0.0
2017-Jun-27 23:50N 43°33' E 007°07'0 0.0
2017-Jun-27 23:29N 43°33' E 007°07'1 0.2
2017-Jun-27 20:17N 43°33' E 007°07'7612.0
2017-Jun-27 13:59N 44°10' E 008°38'712.1
2017-Jun-27 13:23N 44°13' E 008°47'512.1
2017-Jun-27 13:00N 44°14' E 008°54'612.2
2017-Jun-27 12:30N 44°15' E 009°02'612.2
2017-Jun-27 12:00N 44°17' E 009°10'510.3
2017-Jun-27 11:31N 44°17' E 009°17'4 0.2
2017-Jun-26 12:37N 44°18' E 009°13'0 1.4
2017-Jun-26 12:30N 44°18' E 009°13'3 5.7
2017-Jun-26 12:00N 44°17' E 009°10'612.2
2017-Jun-26 11:30N 44°15' E 009°02'612.1
2017-Jun-26 11:00N 44°13' E 008°53'612.1
2017-Jun-26 10:30N 44°11' E 008°45'612.0
2017-Jun-26 10:00N 44°09' E 008°38'78 3.9
2017-Jun-25 13:55N 43°31' E 007°03'0 0.0
2017-Jun-25 13:28N 43°31' E 007°03'0 0.1
2017-Jun-25 12:58N 43°31' E 007°03'0 0.0
2017-Jun-25 12:25N 43°31' E 007°03'0 0.1
2017-Jun-25 11:58N 43°31' E 007°03'0 0.0
2017-Jun-25 11:28N 43°31' E 007°03'0 0.0
2017-Jun-25 10:58N 43°31' E 007°03'0 0.0
2017-Jun-25 10:28N 43°31' E 007°03'0 0.0
2017-Jun-25 09:55N 43°31' E 007°03'0 0.0
2017-Jun-25 09:28N 43°31' E 007°03'0 0.0
2017-Jun-25 08:55N 43°31' E 007°03'0 0.0
2017-Jun-25 08:19N 43°31' E 007°03'0 0.0
2017-Jun-25 07:52N 43°31' E 007°03'0 0.1
2017-Jun-25 07:07N 43°31' E 007°03'0 0.2
2017-Jun-25 06:58N 43°31' E 007°03'0 0.0
2017-Jun-25 06:28N 43°31' E 007°03'0 0.0
2017-Jun-25 05:58N 43°31' E 007°03'0 0.0
2017-Jun-25 05:28N 43°31' E 007°03'0 0.0
2017-Jun-25 04:55N 43°31' E 007°03'0 0.0
2017-Jun-25 04:25N 43°31' E 007°03'0 0.0
2017-Jun-25 03:58N 43°31' E 007°03'0 0.0
2017-Jun-25 03:28N 43°31' E 007°03'0 0.0
2017-Jun-25 02:43N 43°31' E 007°03'0 0.1
2017-Jun-25 02:28N 43°31' E 007°03'0 0.0
2017-Jun-25 01:58N 43°31' E 007°03'0 0.0
2017-Jun-25 01:22N 43°31' E 007°03'0 0.0
2017-Jun-25 00:43N 43°31' E 007°03'0 0.0
2017-Jun-25 00:25N 43°31' E 007°03'0 0.0
2017-Jun-24 23:52N 43°31' E 007°03'0 0.0
2017-Jun-24 23:28N 43°31' E 007°03'0 0.0
2017-Jun-24 22:58N 43°31' E 007°03'0 0.0
2017-Jun-24 22:25N 43°31' E 007°03'0 0.0
2017-Jun-24 21:55N 43°31' E 007°03'0 0.0
2017-Jun-24 21:28N 43°31' E 007°03'0 0.0
2017-Jun-24 20:55N 43°31' E 007°03'0 0.0
2017-Jun-24 20:19N 43°31' E 007°03'0 0.0
2017-Jun-24 19:43N 43°31' E 007°03'0 0.0
2017-Jun-24 19:28N 43°31' E 007°03'0 0.0
2017-Jun-24 18:55N 43°31' E 007°03'0 0.0
2017-Jun-24 18:25N 43°31' E 007°03'0 0.0
2017-Jun-24 17:55N 43°31' E 007°03'0 0.0
2017-Jun-24 17:28N 43°31' E 007°03'0 0.0
2017-Jun-24 16:58N 43°31' E 007°03'0 0.0
2017-Jun-24 16:25N 43°31' E 007°03'0 0.0
2017-Jun-24 15:55N 43°31' E 007°03'0 0.0
2017-Jun-24 15:19N 43°31' E 007°03'0 0.0
2017-Jun-24 14:55N 43°31' E 007°03'0 0.0
2017-Jun-24 14:25N 43°31' E 007°03'0 0.0
2017-Jun-24 13:13N 43°31' E 007°03'0 0.0
2017-Jun-24 12:40N 43°31' E 007°03'0 0.1
2017-Jun-24 12:30N 43°31' E 007°03'  

Dump ship's entire track history